Time;durP1;ratioP1;P1;durP2;ratioP2;P2;SDS_P1;SDS_P2;PMS_P1;PMS_P2;Temp;Humidity;BMP_temperature;BMP_pressure;BME280_temperature;BME280_humidity;BME280_pressure;Samples;Min_cycle;Max_cycle;Signal;HPM_P1;HPM_P2
2023/01/30 00:00:55;;;;;;;16.20;10.93;;;;;;;0.47;64.41;96773.00;5028224;28;20492;-67
2023/01/30 00:03:22;;;;;;;17.00;12.00;;;;;;;0.58;64.05;96768.72;5028370;28;20469;-67
2023/01/30 00:05:47;;;;;;;16.90;11.87;;;;;;;0.49;63.69;96754.94;5028212;28;20487;-68
2023/01/30 00:08:13;;;;;;;19.67;12.23;;;;;;;0.44;64.31;96744.59;5028340;28;20470;-67
2023/01/30 00:10:39;;;;;;;16.83;11.53;;;;;;;0.46;64.29;96739.44;5027833;28;20214;-68
2023/01/30 00:13:04;;;;;;;17.20;12.50;;;;;;;0.47;63.66;96738.56;5028228;28;20175;-68
2023/01/30 00:15:30;;;;;;;17.13;10.77;;;;;;;0.43;63.99;96742.88;5028444;28;20233;-68
2023/01/30 00:17:55;;;;;;;16.50;11.13;;;;;;;0.39;64.12;96733.41;5028416;28;20182;-68
2023/01/30 00:20:21;;;;;;;15.83;11.53;;;;;;;0.34;64.00;96733.41;5027935;28;20766;-68
2023/01/30 00:22:46;;;;;;;16.60;11.67;;;;;;;0.32;64.40;96739.41;5020662;28;20323;-67
2023/01/30 00:25:12;;;;;;;26.33;13.00;;;;;;;0.23;64.72;96744.56;5007788;28;20175;-67
2023/01/30 00:27:37;;;;;;;17.40;11.33;;;;;;;0.24;64.39;96736.84;5007989;28;20266;-68
2023/01/30 00:30:04;;;;;;;21.40;13.27;;;;;;;0.25;64.76;96733.38;5008347;28;20265;-67
2023/01/30 00:32:30;;;;;;;19.33;12.17;;;;;;;0.18;64.65;96737.66;5008401;28;20645;-67
2023/01/30 00:34:56;;;;;;;16.10;12.50;;;;;;;0.17;64.74;96730.78;5010820;28;20411;-68
2023/01/30 00:37:21;;;;;;;15.10;11.20;;;;;;;0.19;64.54;96726.50;5007958;28;20200;-68
2023/01/30 00:39:47;;;;;;;21.40;12.90;;;;;;;0.23;64.67;96711.00;5007786;28;20172;-68
2023/01/30 00:47:40;;;;;;;16.43;11.77;;;;;;;0.35;64.61;96717.03;5007710;28;20541;-67
2023/01/30 00:50:06;;;;;;;20.47;12.93;;;;;;;0.30;64.38;96717.91;5007540;28;20448;-67
2023/01/30 00:52:31;;;;;;;16.90;11.87;;;;;;;0.23;64.13;96716.19;5007897;28;20255;-67
2023/01/30 00:54:57;;;;;;;16.37;12.67;;;;;;;0.20;64.48;96715.31;5007726;28;20254;-67
2023/01/30 00:57:22;;;;;;;20.00;13.47;;;;;;;0.19;64.52;96708.44;5007383;28;20173;-67
2023/01/30 00:59:48;;;;;;;16.03;12.20;;;;;;;0.22;64.40;96697.25;5007338;28;20184;-67
2023/01/30 01:02:13;;;;;;;18.43;14.37;;;;;;;0.28;64.28;96698.97;5007372;28;20180;-68
2023/01/30 01:04:44;;;;;;;17.10;13.27;;;;;;;0.15;64.54;96686.06;5007522;28;20820;-68
2023/01/30 01:07:11;;;;;;;19.50;13.47;;;;;;;0.27;64.22;96692.09;5007385;28;20660;-68
2023/01/30 01:09:36;;;;;;;24.60;13.83;;;;;;;0.10;64.55;96698.09;5007037;28;20407;-68
2023/01/30 01:12:02;;;;;;;18.03;13.60;;;;;;;0.04;64.89;96704.97;5006998;28;21081;-68
2023/01/30 01:14:28;;;;;;;16.10;11.43;;;;;;;0.10;64.75;96694.66;5007361;28;20215;-67
2023/01/30 01:16:53;;;;;;;17.40;12.77;;;;;;;0.14;64.55;96698.94;5007240;28;20407;-67
2023/01/30 01:19:18;;;;;;;21.50;14.47;;;;;;;0.32;63.81;96687.78;5006926;28;20168;-67
2023/01/30 01:21:44;;;;;;;19.47;12.30;;;;;;;0.24;63.96;96672.31;5007223;28;20192;-68
2023/01/30 01:24:13;;;;;;;19.50;13.67;;;;;;;0.29;63.96;96678.34;5025854;28;20180;-69
2023/01/30 01:26:40;;;;;;;19.30;13.13;;;;;;;0.17;64.01;96674.03;5026553;28;20203;-68
2023/01/30 01:29:10;;;;;;;16.97;13.70;;;;;;;0.31;63.46;96681.78;5026511;28;20452;-68
2023/01/30 01:31:35;;;;;;;21.27;12.90;;;;;;;0.29;63.33;96678.34;5026007;28;20512;-68
2023/01/30 01:34:01;;;;;;;19.10;13.43;;;;;;;0.25;63.85;96673.16;5024963;28;20407;-68
2023/01/30 01:36:26;;;;;;;17.60;12.13;;;;;;;0.22;64.12;96673.19;5026405;28;20207;-69
2023/01/30 01:38:51;;;;;;;31.10;14.10;;;;;;;0.22;63.55;96671.44;5026423;28;20258;-68
2023/01/30 01:41:17;;;;;;;19.30;13.00;;;;;;;0.03;64.09;96683.47;5026216;28;20274;-68
2023/01/30 01:44:04;;;;;;;15.40;12.03;;;;;;;0.24;63.85;96694.66;5026303;28;20818;-68
2023/01/30 01:46:38;;;;;;;22.30;12.47;;;;;;;0.01;64.37;96712.69;5026354;28;20253;-68
2023/01/30 01:49:16;;;;;;;22.13;12.67;;;;;;;-0.04;64.80;96716.13;5026252;28;20433;-68
2023/01/30 01:52:04;;;;;;;19.50;13.47;;;;;;;-0.08;65.17;96719.53;5025995;28;20436;-68
2023/01/30 01:54:32;;;;;;;19.53;13.23;;;;;;;-0.12;64.84;96719.53;5026229;28;20410;-68
2023/01/30 01:57:02;;;;;;;17.47;13.30;;;;;;;-0.14;64.99;96722.13;5026146;28;20406;-68
2023/01/30 01:59:37;;;;;;;19.73;13.40;;;;;;;-0.12;65.78;96720.41;5026136;28;20533;-68
2023/01/30 02:02:08;;;;;;;19.30;13.67;;;;;;;-0.05;64.91;96713.53;5026214;28;20504;-67
2023/01/30 02:07:24;;;;;;;26.20;13.70;;;;;;;-0.07;64.69;96721.28;5026149;28;20496;-68
2023/01/30 02:09:50;;;;;;;23.77;14.87;;;;;;;-0.10;65.01;96730.72;5025702;28;20538;-68
2023/01/30 02:12:16;;;;;;;23.07;15.17;;;;;;;-0.16;65.23;96736.72;5025695;28;20538;-67
2023/01/30 02:14:42;;;;;;;18.43;12.93;;;;;;;0.03;64.48;96745.38;5025736;28;20418;-68
2023/01/30 02:17:08;;;;;;;21.00;14.13;;;;;;;-0.02;64.86;96752.25;5023721;28;20175;-68
2023/01/30 02:19:41;;;;;;;23.10;13.80;;;;;;;0.05;64.66;96758.28;5025612;28;20480;-67
2023/01/30 02:22:31;;;;;;;22.03;13.40;;;;;;;0.13;64.29;96761.75;5023376;28;20414;-67
2023/01/30 02:25:14;;;;;;;21.80;13.30;;;;;;;0.07;64.37;96757.44;5006113;28;20404;-67
2023/01/30 02:28:07;;;;;;;24.70;13.40;;;;;;;0.03;64.34;96750.53;5005852;28;20564;-67
2023/01/30 02:31:02;;;;;;;21.27;13.40;;;;;;;0.08;64.22;96738.50;5005855;28;21258;-68
2023/01/30 02:33:59;;;;;;;23.70;15.00;;;;;;;0.16;63.86;96721.31;5005882;28;21232;-68
2023/01/30 02:36:34;;;;;;;20.17;12.50;;;;;;;0.07;64.13;96721.31;4988519;28;20434;-67
2023/01/30 02:39:05;;;;;;;20.80;13.13;;;;;;;-0.01;64.44;96723.00;5005804;28;20406;-68
2023/01/30 02:41:58;;;;;;;19.60;13.70;;;;;;;0.14;63.76;96714.44;5005322;28;20505;-68
2023/01/30 02:44:52;;;;;;;20.80;13.70;;;;;;;0.05;64.12;96709.25;5005425;28;20474;-66
2023/01/30 02:47:28;;;;;;;24.73;14.03;;;;;;;-0.04;64.83;96713.53;5005426;28;20948;-67
2023/01/30 02:50:18;;;;;;;19.33;13.73;;;;;;;-0.04;64.43;96731.59;5004569;28;20478;-67
2023/01/30 02:52:44;;;;;;;20.77;13.07;;;;;;;-0.06;64.71;96732.47;5005461;28;20415;-67
2023/01/30 02:55:20;;;;;;;23.83;16.70;;;;;;;-0.08;64.05;96724.69;5005376;28;20411;-67
2023/01/30 02:57:46;;;;;;;25.87;14.57;;;;;;;-0.01;64.77;96710.97;5005509;28;20172;-67
2023/01/30 03:00:14;;;;;;;22.53;14.50;;;;;;;0.02;64.54;96707.53;5005134;28;20879;-67
2023/01/30 03:03:05;;;;;;;19.83;14.70;;;;;;;0.09;64.66;96717.00;5005456;28;20196;-67
2023/01/30 03:05:40;;;;;;;22.27;14.50;;;;;;;0.15;63.78;96724.78;5005443;28;20412;-67
2023/01/30 03:08:30;;;;;;;23.70;15.17;;;;;;;-0.04;64.46;96723.84;5005741;28;20462;-67
2023/01/30 03:11:05;;;;;;;28.80;12.80;;;;;;;0.08;64.05;96722.19;5004960;28;20518;-67
2023/01/30 03:13:36;;;;;;;25.00;14.70;;;;;;;0.15;64.05;96706.69;5005532;28;20414;-67
2023/01/30 03:16:08;;;;;;;31.93;14.03;;;;;;;0.14;63.53;96707.56;5004690;28;20446;-67
2023/01/30 03:18:33;;;;;;;20.43;13.53;;;;;;;0.12;63.76;96705.81;5005429;28;20409;-67
2023/01/30 03:21:06;;;;;;;21.23;13.87;;;;;;;0.14;63.83;96691.19;5004605;28;20431;-67
2023/01/30 03:23:31;;;;;;;24.87;13.33;;;;;;;0.07;63.93;96685.19;5017296;28;20180;-68
2023/01/30 03:25:58;;;;;;;21.67;12.83;;;;;;;0.04;63.77;96682.59;5024605;28;20429;-67
2023/01/30 03:28:25;;;;;;;18.50;13.43;;;;;;;0.02;64.14;96704.94;5024755;28;20313;-68
2023/01/30 03:30:51;;;;;;;22.40;13.83;;;;;;;-0.07;64.61;96705.81;5024177;28;20438;-67
2023/01/30 03:33:16;;;;;;;21.90;15.53;;;;;;;0.08;63.98;96704.97;5024723;28;20945;-68
2023/01/30 03:35:42;;;;;;;23.47;15.00;;;;;;;0.11;63.80;96715.28;5024650;28;20171;-68
2023/01/30 03:38:08;;;;;;;24.53;15.10;;;;;;;-0.05;64.59;96727.31;5025072;28;20780;-67
2023/01/30 03:40:34;;;;;;;20.93;12.97;;;;;;;-0.06;64.35;96728.16;5024617;28;20198;-67
2023/01/30 03:42:59;;;;;;;21.23;15.60;;;;;;;0.03;64.42;96735.06;5024854;28;20415;-67
2023/01/30 03:45:25;;;;;;;21.40;13.97;;;;;;;0.13;64.02;96700.69;5024752;28;20195;-68
2023/01/30 03:47:50;;;;;;;21.07;14.00;;;;;;;0.16;63.85;96700.66;5024714;28;20203;-67
2023/01/30 03:50:16;;;;;;;25.27;15.40;;;;;;;0.11;63.34;96711.84;5024449;28;20198;-67
2023/01/30 03:52:42;;;;;;;21.60;13.33;;;;;;;0.02;64.04;96714.41;5023773;28;20179;-68
2023/01/30 03:55:07;;;;;;;21.33;13.40;;;;;;;0.02;64.14;96704.94;5024812;28;20206;-68
2023/01/30 03:57:33;;;;;;;19.37;14.27;;;;;;;-0.01;64.12;96699.78;5024988;28;20184;-68
2023/01/30 03:59:58;;;;;;;31.17;15.50;;;;;;;-0.04;63.97;96702.38;5025212;28;20502;-68
2023/01/30 04:02:25;;;;;;;22.90;14.87;;;;;;;0.13;63.84;96697.25;5028177;28;20175;-68
2023/01/30 04:04:50;;;;;;;22.77;15.13;;;;;;;-0.01;64.07;96695.47;5028188;28;20184;-68
2023/01/30 04:07:16;;;;;;;26.63;14.73;;;;;;;0.12;63.78;96669.69;5028218;28;21181;-68
2023/01/30 04:09:42;;;;;;;23.63;14.67;;;;;;;0.13;63.73;96664.53;5028292;28;20203;-68
2023/01/30 04:12:08;;;;;;;23.00;15.20;;;;;;;0.09;63.72;96660.22;5028167;28;20186;-68
2023/01/30 04:14:33;;;;;;;24.77;14.77;;;;;;;0.02;63.93;96663.66;5028419;28;20175;-68
2023/01/30 04:16:58;;;;;;;28.93;15.53;;;;;;;0.24;63.00;96658.53;5028475;28;20195;-68
2023/01/30 04:19:24;;;;;;;22.27;14.57;;;;;;;0.25;62.81;96642.19;5028143;28;20190;-68
2023/01/30 04:21:49;;;;;;;22.57;13.80;;;;;;;0.06;63.88;96633.59;5027861;28;20207;-68
2023/01/30 04:24:15;;;;;;;23.47;14.50;;;;;;;0.12;63.59;96623.25;5008638;28;20180;-68
2023/01/30 04:26:40;;;;;;;20.77;14.60;;;;;;;0.29;62.83;96624.13;5008585;28;20699;-68
2023/01/30 04:29:05;;;;;;;20.43;13.77;;;;;;;0.24;63.20;96607.78;5008044;28;20172;-68
2023/01/30 04:31:31;;;;;;;20.97;14.33;;;;;;;0.12;63.57;96639.63;5007905;28;20200;-68
2023/01/30 04:33:56;;;;;;;20.57;14.67;;;;;;;-0.05;64.60;96662.81;5007844;28;20184;-68
2023/01/30 04:36:22;;;;;;;22.90;15.60;;;;;;;-0.13;64.92;96661.06;5008027;28;20522;-68
2023/01/30 04:38:47;;;;;;;22.37;15.03;;;;;;;-0.17;65.03;96670.50;5008011;28;20168;-68
2023/01/30 04:41:13;;;;;;;25.43;16.10;;;;;;;-0.21;65.56;96684.28;5007475;28;20774;-68
2023/01/30 04:43:38;;;;;;;21.67;15.30;;;;;;;-0.02;64.71;96682.59;5008087;28;20176;-69
2023/01/30 04:46:03;;;;;;;25.40;13.90;;;;;;;-0.04;64.52;96679.16;5007843;28;20211;-68
2023/01/30 04:48:29;;;;;;;25.67;16.30;;;;;;;-0.01;64.34;96672.25;5008004;28;20172;-68
2023/01/30 04:50:55;;;;;;;23.53;14.90;;;;;;;0.12;64.16;96665.41;5006116;28;20196;-68
2023/01/30 04:53:21;;;;;;;26.87;15.87;;;;;;;0.18;64.16;96665.41;5007881;28;20191;-68
2023/01/30 04:55:47;;;;;;;25.07;16.10;;;;;;;0.11;64.09;96667.97;5007914;28;20419;-68
2023/01/30 04:58:13;;;;;;;25.70;15.17;;;;;;;0.01;64.21;96667.13;5007819;28;20427;-68
2023/01/30 05:00:38;;;;;;;24.33;15.77;;;;;;;0.13;63.94;96680.03;5007555;28;20199;-68
2023/01/30 05:03:05;;;;;;;21.33;13.70;;;;;;;-0.05;64.66;96690.31;5007681;28;20206;-68
2023/01/30 05:05:31;;;;;;;23.80;15.27;;;;;;;-0.05;64.66;96673.13;5007464;28;20760;-68
2023/01/30 05:07:56;;;;;;;23.47;14.93;;;;;;;0.04;64.43;96664.53;5007419;28;20612;-68
2023/01/30 05:10:22;;;;;;;23.70;15.00;;;;;;;0.04;64.24;96669.69;5007288;28;20435;-68
2023/01/30 05:12:47;;;;;;;25.10;16.50;;;;;;;-0.06;64.58;96666.22;5006597;28;21003;-68
2023/01/30 05:15:13;;;;;;;25.70;15.20;;;;;;;0.09;64.26;96654.22;5007321;28;20236;-68
2023/01/30 05:17:39;;;;;;;23.63;14.70;;;;;;;0.08;64.85;96662.84;5007140;28;20267;-68
2023/01/30 05:20:06;;;;;;;25.63;15.23;;;;;;;0.13;63.89;96661.13;5007380;28;20271;-68
2023/01/30 05:22:32;;;;;;;37.33;17.37;;;;;;;0.10;64.07;96661.13;5012907;28;20648;-68
2023/01/30 05:24:57;;;;;;;23.23;16.10;;;;;;;0.11;64.10;96642.19;5021905;28;20423;-68
2023/01/30 05:27:23;;;;;;;25.33;14.47;;;;;;;0.18;63.64;96631.84;5017398;28;20215;-68
2023/01/30 05:29:48;;;;;;;22.70;14.90;;;;;;;0.08;63.78;96637.03;5006641;28;20352;-68
2023/01/30 05:32:15;;;;;;;23.80;16.17;;;;;;;0.09;64.07;96638.72;5006706;28;20229;-68
2023/01/30 05:34:40;;;;;;;22.50;15.20;;;;;;;0.08;63.75;96630.13;5006508;28;20184;-67
2023/01/30 05:37:06;;;;;;;22.17;14.47;;;;;;;0.05;64.02;96631.84;5020892;28;20416;-67
2023/01/30 05:39:32;;;;;;;21.67;14.03;;;;;;;-0.02;64.17;96642.19;5025991;28;20245;-67
2023/01/30 05:41:57;;;;;;;19.90;14.47;;;;;;;-0.14;64.50;96646.44;5026068;28;20210;-67
2023/01/30 05:44:23;;;;;;;19.43;13.60;;;;;;;-0.02;64.40;96651.63;5026569;28;20215;-67
2023/01/30 05:46:48;;;;;;;25.83;15.60;;;;;;;-0.08;64.19;96646.47;5024618;28;20230;-67
2023/01/30 05:49:14;;;;;;;24.90;15.17;;;;;;;-0.12;64.84;96649.88;5026715;28;20179;-67
2023/01/30 05:51:40;;;;;;;19.00;14.90;;;;;;;0.00;64.60;96649.94;5026275;28;20207;-67
2023/01/30 05:54:05;;;;;;;26.17;15.27;;;;;;;-0.05;65.46;96647.34;5019805;28;20246;-68
2023/01/30 05:56:32;;;;;;;22.63;15.60;;;;;;;-0.13;65.66;96650.75;5020015;28;20178;-68
2023/01/30 05:58:58;;;;;;;24.07;15.77;;;;;;;-0.07;65.26;96654.22;5026121;28;20245;-67
2023/01/30 06:01:25;;;;;;;23.10;14.83;;;;;;;-0.03;65.28;96655.06;5015420;28;20514;-68
2023/01/30 06:03:51;;;;;;;24.40;15.40;;;;;;;0.04;64.63;96655.94;5023551;28;20473;-68
2023/01/30 06:06:16;;;;;;;24.27;14.77;;;;;;;-0.03;64.97;96660.22;5018641;28;20460;-68
2023/01/30 06:08:42;;;;;;;26.93;16.10;;;;;;;0.04;64.95;96661.09;5017765;28;20518;-68
2023/01/30 06:11:10;;;;;;;23.73;14.97;;;;;;;0.05;64.82;96655.94;5014203;28;20563;-69
2023/01/30 06:13:37;;;;;;;28.47;14.60;;;;;;;0.01;65.15;96651.63;5018985;28;20227;-69
2023/01/30 06:16:03;;;;;;;22.10;13.40;;;;;;;0.17;63.91;96639.63;5019435;28;20438;-68
2023/01/30 06:18:28;;;;;;;25.03;14.40;;;;;;;0.09;64.17;96644.75;5009862;28;20438;-68
2023/01/30 06:20:54;;;;;;;22.03;14.63;;;;;;;0.16;64.07;96641.31;5014891;28;20465;-67
2023/01/30 06:23:22;;;;;;;22.77;14.70;;;;;;;0.05;64.55;96631.84;5015570;28;20594;-68
2023/01/30 06:25:49;;;;;;;24.03;14.20;;;;;;;0.17;63.95;96624.13;5020683;28;20179;-68
2023/01/30 06:28:16;;;;;;;22.67;14.97;;;;;;;0.18;64.20;96638.75;5012829;28;20466;-68
2023/01/30 06:30:42;;;;;;;24.07;13.53;;;;;;;0.06;64.46;96636.16;5017971;28;20842;-68
2023/01/30 06:33:07;;;;;;;26.70;15.53;;;;;;;0.13;63.66;96638.75;5018246;28;20453;-70
2023/01/30 06:35:33;;;;;;;20.90;15.60;;;;;;;0.08;64.07;96631.88;5009202;28;20288;-69
2023/01/30 06:37:58;;;;;;;30.27;16.60;;;;;;;0.04;64.82;96646.47;5011125;28;20622;-70
2023/01/30 06:40:24;;;;;;;23.30;15.10;;;;;;;-0.13;65.26;96643.00;5021742;28;20188;-70
2023/01/30 06:42:49;;;;;;;36.73;16.83;;;;;;;-0.10;65.87;96643.00;5021804;28;20188;-68
2023/01/30 06:45:17;;;;;;;26.83;15.50;;;;;;;0.11;64.84;96639.59;5004425;28;20198;-67
2023/01/30 06:47:53;;;;;;;26.27;15.30;;;;;;;0.06;65.09;96641.31;5010179;28;20207;-68
2023/01/30 06:50:22;;;;;;;37.73;16.60;;;;;;;0.10;64.82;96636.16;5021913;28;20437;-67
2023/01/30 06:52:49;;;;;;;48.07;15.80;;;;;;;0.01;65.12;96635.31;5023641;28;21105;-68
2023/01/30 06:55:17;;;;;;;49.10;14.33;;;;;;;0.15;64.53;96646.50;5016124;28;20534;-68
2023/01/30 06:57:44;;;;;;;43.43;17.87;;;;;;;0.12;65.03;96649.06;5016549;28;20438;-68
2023/01/30 07:00:13;;;;;;;22.47;14.13;;;;;;;0.02;65.08;96653.34;5017496;28;20519;-68
2023/01/30 07:02:39;;;;;;;26.20;14.53;;;;;;;0.07;64.84;96654.25;5018403;28;20441;-68
2023/01/30 07:05:06;;;;;;;24.63;14.97;;;;;;;0.02;65.01;96658.50;5010242;28;20431;-69
2023/01/30 07:07:32;;;;;;;30.47;14.23;;;;;;;0.09;64.38;96646.47;5013098;28;20527;-67
2023/01/30 07:09:58;;;;;;;21.07;14.30;;;;;;;0.18;64.63;96638.75;5016186;28;20462;-67
2023/01/30 07:12:24;;;;;;;47.57;16.57;;;;;;;0.18;64.68;96641.31;5009574;28;20486;-68
2023/01/30 07:14:51;;;;;;;20.57;13.70;;;;;;;-0.11;64.77;96642.16;5013042;28;20179;-68
2023/01/30 07:17:16;;;;;;;40.10;15.13;;;;;;;0.15;64.48;96654.25;5016056;28;20426;-68
2023/01/30 07:19:43;;;;;;;26.90;14.17;;;;;;;0.31;64.04;96657.69;5017720;28;20457;-68
2023/01/30 07:22:08;;;;;;;18.63;12.50;;;;;;;0.19;64.24;96655.97;5009415;28;20180;-70
2023/01/30 07:24:34;;;;;;;17.13;12.30;;;;;;;0.31;64.32;96649.94;5007149;28;20934;-68
2023/01/30 07:26:59;;;;;;;17.73;12.37;;;;;;;0.35;63.86;96631.84;5015058;28;20293;-67
2023/01/30 07:29:24;;;;;;;21.83;14.27;;;;;;;0.15;64.86;96629.28;5016012;28;20175;-67
2023/01/30 07:31:50;;;;;;;22.60;13.33;;;;;;;0.24;64.16;96627.56;5016926;28;20211;-67
2023/01/30 07:34:15;;;;;;;19.50;12.27;;;;;;;0.54;63.67;96614.63;5017668;28;20187;-67
2023/01/30 07:36:41;;;;;;;20.53;11.77;;;;;;;1.29;62.26;96615.31;5021183;28;20192;-67
2023/01/30 07:39:08;;;;;;;17.57;12.80;;;;;;;3.10;55.64;96608.75;5021432;28;20207;-68
2023/01/30 07:41:34;;;;;;;18.73;13.40;;;;;;;4.56;51.53;96606.69;5014266;28;20199;-67
2023/01/30 07:44:00;;;;;;;17.20;11.87;;;;;;;5.46;48.42;96596.38;5018153;28;20504;-67
2023/01/30 07:46:33;;;;;;;20.40;13.73;;;;;;;6.20;45.48;96615.63;5022460;28;20557;-68
2023/01/30 07:48:59;;;;;;;17.83;11.83;;;;;;;7.09;44.18;96609.03;5028322;28;20414;-68
2023/01/30 07:51:24;;;;;;;14.70;11.73;;;;;;;7.74;41.43;96615.91;5010825;28;20458;-68
2023/01/30 07:53:50;;;;;;;14.40;11.43;;;;;;;7.14;43.10;96622.81;5008372;28;20183;-68
2023/01/30 07:56:18;;;;;;;17.57;11.93;;;;;;;5.49;46.16;96623.19;5008973;28;20689;-69
2023/01/30 07:58:44;;;;;;;15.20;11.73;;;;;;;5.32;47.15;96624.41;5010150;28;20345;-68
2023/01/30 08:01:10;;;;;;;15.47;11.40;;;;;;;5.54;46.41;96615.28;5008792;28;20529;-68
2023/01/30 08:03:36;;;;;;;13.50;10.63;;;;;;;6.57;44.02;96611.25;5009009;28;20522;-68
2023/01/30 08:06:01;;;;;;;15.40;11.93;;;;;;;5.23;46.21;96610.69;5008796;28;20176;-68
2023/01/30 08:08:26;;;;;;;15.83;11.83;;;;;;;4.06;49.38;96610.97;5008242;28;20287;-68
2023/01/30 08:10:52;;;;;;;17.50;11.90;;;;;;;3.15;52.87;96614.75;5018626;28;20652;-69
2023/01/30 08:13:17;;;;;;;15.70;12.00;;;;;;;3.02;53.94;96614.00;5028217;28;20981;-69
2023/01/30 08:15:43;;;;;;;20.47;13.27;;;;;;;2.69;55.07;96618.69;5028007;28;20175;-69
2023/01/30 08:18:08;;;;;;;14.60;11.43;;;;;;;2.46;55.85;96628.41;5028517;28;20226;-69
2023/01/30 08:20:35;;;;;;;18.07;11.03;;;;;;;2.02;57.51;96627.00;5013232;28;20199;-69
2023/01/30 08:23:03;;;;;;;16.33;12.03;;;;;;;1.75;58.66;96621.13;5008678;28;20195;-69
2023/01/30 08:25:29;;;;;;;18.30;12.47;;;;;;;1.78;58.76;96634.03;5008139;28;20472;-69
2023/01/30 08:27:58;;;;;;;17.40;12.33;;;;;;;1.84;58.13;96627.97;5008045;28;20478;-67
2023/01/30 08:30:23;;;;;;;18.10;12.17;;;;;;;1.87;58.70;96617.59;5015203;28;20587;-68
2023/01/30 08:32:49;;;;;;;45.40;14.47;;;;;;;2.08;58.15;96617.47;5019883;28;20529;-68
2023/01/30 08:35:14;;;;;;;40.93;14.50;;;;;;;1.80;59.12;96614.19;5022703;28;20298;-68
2023/01/30 08:37:41;;;;;;;20.07;11.93;;;;;;;1.86;58.47;96610.69;5020565;28;20179;-68
2023/01/30 08:40:07;;;;;;;18.60;11.67;;;;;;;1.84;59.23;96608.13;5022738;28;20282;-68
2023/01/30 08:42:33;;;;;;;18.47;11.30;;;;;;;1.60;59.28;96614.28;5027319;28;20639;-68
2023/01/30 08:44:58;;;;;;;15.77;11.27;;;;;;;1.63;58.65;96636.69;5014586;28;20531;-69
2023/01/30 08:47:24;;;;;;;16.60;9.80;;;;;;;1.69;59.30;96634.09;5026332;28;20200;-67
2023/01/30 08:49:53;;;;;;;15.87;10.23;;;;;;;1.61;59.16;96633.28;5027325;28;20188;-68
2023/01/30 08:52:19;;;;;;;16.47;11.30;;;;;;;1.50;59.63;96612.63;5007796;28;20192;-68
2023/01/30 08:54:45;;;;;;;14.87;10.63;;;;;;;1.47;60.14;96607.47;5007546;28;20422;-68
2023/01/30 08:57:10;;;;;;;16.13;10.60;;;;;;;1.48;59.70;96620.38;5007496;28;20411;-70
2023/01/30 08:59:35;;;;;;;13.90;10.60;;;;;;;1.70;59.71;96604.75;5006981;28;20533;-67
2023/01/30 09:02:01;;;;;;;12.87;9.70;;;;;;;1.81;58.34;96595.19;5011724;28;20179;-67
2023/01/30 09:04:29;;;;;;;14.33;9.03;;;;;;;1.78;58.37;96607.31;5008426;28;20176;-67
2023/01/30 09:06:54;;;;;;;16.77;11.17;;;;;;;1.70;59.22;96604.75;5009710;28;20327;-69
2023/01/30 09:09:20;;;;;;;17.47;9.60;;;;;;;1.73;59.50;96620.28;5006897;28;20435;-67
2023/01/30 09:11:46;;;;;;;12.73;9.90;;;;;;;1.84;58.81;96600.38;5007197;28;20206;-69
2023/01/30 09:14:13;;;;;;;13.30;9.27;;;;;;;1.99;58.61;96611.50;5020243;28;20623;-69
2023/01/30 09:16:38;;;;;;;17.07;10.87;;;;;;;2.03;58.06;96602.81;5027199;28;21195;-69
2023/01/30 09:19:04;;;;;;;13.87;9.47;;;;;;;2.14;57.90;96590.66;5029233;28;20418;-68
2023/01/30 09:21:30;;;;;;;15.23;10.97;;;;;;;2.28;57.66;96594.00;5019694;28;20232;-68
2023/01/30 09:23:56;;;;;;;14.03;10.23;;;;;;;2.25;57.68;96593.19;5006739;28;20180;-68
2023/01/30 09:26:22;;;;;;;13.10;9.70;;;;;;;2.29;58.39;96567.25;5006969;28;20425;-68
2023/01/30 09:28:47;;;;;;;12.73;10.20;;;;;;;2.28;57.02;96565.50;5006775;28;20250;-70
2023/01/30 09:31:12;;;;;;;13.83;9.30;;;;;;;2.26;57.31;96556.03;5027168;28;20204;-69
2023/01/30 09:33:38;;;;;;;13.97;10.07;;;;;;;2.50;56.76;96554.94;5026585;28;20197;-67
2023/01/30 09:36:04;;;;;;;14.53;9.57;;;;;;;2.56;56.71;96574.78;5026035;28;20254;-69
2023/01/30 09:38:29;;;;;;;13.03;9.20;;;;;;;2.54;57.11;96569.59;5026637;28;20182;-69
2023/01/30 09:40:57;;;;;;;19.97;9.77;;;;;;;2.50;56.21;96571.38;5007284;28;20219;-68
2023/01/30 09:43:41;;;;;;;63.80;14.47;;;;;;;2.47;56.63;96578.28;5006910;28;20231;-68
2023/01/30 09:46:09;;;;;;;34.67;11.53;;;;;;;2.43;56.77;96584.38;5006748;28;20403;-67
2023/01/30 09:49:07;;;;;;;58.37;14.53;;;;;;;3.09;54.93;96562.94;5020197;28;20805;-68
2023/01/30 09:51:42;;;;;;;13.10;9.40;;;;;;;3.99;52.11;96559.16;5022019;28;20458;-68
2023/01/30 09:54:16;;;;;;;19.80;9.80;;;;;;;4.65;50.13;96558.03;5026467;28;20434;-69
2023/01/30 09:56:42;;;;;;;16.57;8.70;;;;;;;4.78;49.69;96570.81;5026178;28;20939;-67
2023/01/30 09:59:21;;;;;;;12.73;9.20;;;;;;;4.12;50.80;96566.72;5025934;28;20529;-69
2023/01/30 10:01:57;;;;;;;12.50;7.97;;;;;;;3.74;51.95;96563.84;5025914;28;20191;-69
2023/01/30 10:04:38;;;;;;;14.93;9.90;;;;;;;3.56;53.08;96551.97;5024176;28;20406;-68
2023/01/30 10:07:10;;;;;;;11.40;8.73;;;;;;;3.40;53.67;96553.03;5028907;28;20508;-67
2023/01/30 10:09:54;;;;;;;13.47;10.53;;;;;;;3.40;53.37;96527.09;5026075;28;20457;-68
2023/01/30 10:12:34;;;;;;;13.07;9.10;;;;;;;3.69;53.23;96518.06;5019201;28;20422;-68
2023/01/30 10:15:27;;;;;;;10.47;7.83;;;;;;;4.12;52.22;96522.59;5025653;28;20420;-68
2023/01/30 10:18:38;;;;;;;29.53;10.07;;;;;;;4.90;49.87;96502.97;5027240;28;21204;-68
2023/01/30 10:21:11;;;;;;;22.07;11.47;;;;;;;4.97;49.08;96494.16;5024737;28;20537;-67
2023/01/30 10:23:39;;;;;;;20.10;9.13;;;;;;;5.14;48.66;96475.59;5011318;28;20427;-67
2023/01/30 10:26:10;;;;;;;11.30;8.37;;;;;;;4.90;49.70;96471.75;5005670;28;20415;-67
2023/01/30 10:29:00;;;;;;;11.57;9.37;;;;;;;4.47;50.96;96483.00;5005756;28;20494;-69
2023/01/30 10:31:33;;;;;;;12.63;9.30;;;;;;;4.27;51.19;96478.16;5025321;28;20488;-67
2023/01/30 10:34:33;;;;;;;22.13;10.00;;;;;;;4.22;52.20;96470.44;5025562;28;20835;-68
2023/01/30 10:37:25;;;;;;;12.73;8.30;;;;;;;3.91;52.03;96464.06;5011354;28;20418;-69
2023/01/30 10:40:34;;;;;;;14.43;8.70;;;;;;;3.72;53.22;96477.34;5018684;28;20797;-68
2023/01/30 10:43:53;;;;;;;10.07;8.50;;;;;;;3.38;54.02;96470.06;4990262;28;20448;-69
2023/01/30 10:46:33;;;;;;;11.87;8.90;;;;;;;3.35;54.50;96467.53;4971845;28;20517;-69
2023/01/30 10:49:18;;;;;;;14.10;9.73;;;;;;;3.31;54.26;96465.84;5021530;28;20418;-69
2023/01/30 10:52:43;;;;;;;10.93;8.23;;;;;;;3.37;54.50;96457.97;5015179;28;20986;-68
2023/01/30 10:55:28;;;;;;;13.03;8.40;;;;;;;3.32;55.05;96461.53;5001922;28;20585;-68
2023/01/30 10:58:05;;;;;;;13.10;9.40;;;;;;;3.33;55.01;96466.69;5002544;28;20415;-68
2023/01/30 11:00:41;;;;;;;10.47;7.80;;;;;;;3.26;55.38;96461.59;5019957;28;20978;-67
2023/01/30 11:03:58;;;;;;;11.63;8.33;;;;;;;3.31;55.07;96452.88;5016870;28;20871;-69
2023/01/30 11:06:25;;;;;;;12.17;8.73;;;;;;;3.28;56.06;96458.09;4992464;28;21192;-68
2023/01/30 11:08:54;;;;;;;12.93;9.30;;;;;;;3.21;56.25;96453.03;5015290;28;20445;-69
2023/01/30 11:11:27;;;;;;;16.83;9.23;;;;;;;3.18;56.19;96449.59;5019654;28;20457;-69
2023/01/30 11:14:02;;;;;;;14.20;8.70;;;;;;;3.23;56.54;96446.09;5012523;28;20438;-69
2023/01/30 11:16:28;;;;;;;12.50;9.00;;;;;;;3.15;56.57;96428.06;5008604;28;20780;-68
2023/01/30 11:18:57;;;;;;;12.27;8.63;;;;;;;3.27;56.23;96432.22;5018410;28;20446;-69
2023/01/30 11:21:27;;;;;;;17.07;9.40;;;;;;;3.35;56.69;96440.72;5018641;28;20504;-69
2023/01/30 11:23:53;;;;;;;13.20;8.83;;;;;;;3.33;56.82;96432.97;5019380;28;20438;-69
2023/01/30 11:26:28;;;;;;;12.80;8.83;;;;;;;3.30;56.82;96434.75;5024550;28;20423;-68
2023/01/30 11:28:53;;;;;;;11.70;8.93;;;;;;;3.33;56.63;96432.09;5024731;28;20434;-68
2023/01/30 11:31:24;;;;;;;13.90;8.77;;;;;;;3.40;56.63;96428.53;5021147;28;20538;-69
2023/01/30 11:34:02;;;;;;;12.33;8.30;;;;;;;3.35;56.97;96431.22;5017371;28;20312;-69
2023/01/30 11:36:32;;;;;;;11.20;8.40;;;;;;;3.31;56.96;96433.88;5014861;28;20919;-67
2023/01/30 11:39:21;;;;;;;12.17;8.03;;;;;;;3.25;56.81;96421.00;5019599;28;20545;-68
2023/01/30 11:41:53;;;;;;;9.90;7.43;;;;;;;3.32;56.75;96425.22;5011866;28;20458;-67
2023/01/30 11:44:29;;;;;;;10.83;8.50;;;;;;;3.32;57.33;96420.03;5013993;28;20454;-68